Time;durP1;ratioP1;P1;durP2;ratioP2;P2;SDS_P1;SDS_P2;PMS_P1;PMS_P2;Temp;Humidity;BMP_temperature;BMP_pressure;BME280_temperature;BME280_humidity;BME280_pressure;Samples;Min_cycle;Max_cycle;Signal;HPM_P1;HPM_P2
2023/03/16 00:00:38;;;;;;;2.60;2.40;;;;;;;-145.53;100.00;64590.91;6348452;27;20452;-63
2023/03/16 00:03:42;;;;;;;2.40;2.20;;;;;;;-145.53;100.00;64590.91;6360047;27;20429;-63
2023/03/16 00:06:47;;;;;;;2.07;1.87;;;;;;;-145.53;100.00;64590.91;6359789;28;20951;-63
2023/03/16 00:09:51;;;;;;;2.20;2.00;;;;;;;-145.53;100.00;64590.91;6359690;28;20803;-64
2023/03/16 00:12:55;;;;;;;2.27;2.07;;;;;;;-145.53;100.00;64590.91;6348467;27;20570;-63
2023/03/16 00:16:03;;;;;;;2.67;2.47;;;;;;;-145.53;100.00;64590.91;6359733;28;20797;-63
2023/03/16 00:19:07;;;;;;;2.30;2.10;;;;;;;-145.53;100.00;64590.91;6359135;28;20425;-63
2023/03/16 00:22:13;;;;;;;2.30;2.10;;;;;;;-145.53;100.00;64590.91;6353439;28;20448;-63
2023/03/16 00:25:17;;;;;;;1.87;1.70;;;;;;;-145.53;100.00;64590.91;6355898;28;20513;-63
2023/03/16 00:28:21;;;;;;;1.80;1.70;;;;;;;-145.53;100.00;64590.91;6359244;27;20509;-63
2023/03/16 00:31:25;;;;;;;1.93;1.83;;;;;;;-145.53;100.00;64590.91;6359496;27;20795;-63
2023/03/16 00:34:33;;;;;;;2.20;1.73;;;;;;;-145.53;100.00;64590.91;6347254;27;20597;-63
2023/03/16 00:37:41;;;;;;;2.10;1.90;;;;;;;-145.53;100.00;64590.91;6356947;28;20783;-62
2023/03/16 00:40:45;;;;;;;2.90;1.60;;;;;;;-145.53;100.00;64590.91;6349391;28;20494;-63
2023/03/16 00:43:50;;;;;;;1.60;1.50;;;;;;;-145.53;100.00;64590.91;6359334;28;20797;-63
2023/03/16 00:46:54;;;;;;;1.80;1.70;;;;;;;-145.53;100.00;64590.91;6343350;28;20532;-62
2023/03/16 00:49:58;;;;;;;2.03;1.70;;;;;;;-145.53;100.00;64590.91;6333102;28;20901;-62
2023/03/16 00:53:03;;;;;;;1.80;1.70;;;;;;;-145.53;100.00;64590.91;6333404;28;20540;-63
2023/03/16 00:56:08;;;;;;;2.23;1.40;;;;;;;-145.53;100.00;64590.91;6328212;28;20468;-64
2023/03/16 00:59:11;;;;;;;1.60;1.50;;;;;;;-145.53;100.00;64590.91;6331630;28;20452;-63
2023/03/16 01:02:18;;;;;;;1.43;1.33;;;;;;;-145.53;100.00;64590.91;6337393;28;20444;-63
2023/03/16 01:05:21;;;;;;;1.60;1.50;;;;;;;-145.53;100.00;64590.91;6337320;28;20433;-63
2023/03/16 01:08:27;;;;;;;1.50;1.40;;;;;;;-145.53;100.00;64590.91;6326205;28;20456;-63
2023/03/16 01:11:33;;;;;;;2.53;1.43;;;;;;;-145.53;100.00;64590.91;6337774;28;20494;-64
2023/03/16 01:14:38;;;;;;;1.63;1.27;;;;;;;-145.53;100.00;64590.91;6336735;28;20425;-63
2023/03/16 01:17:41;;;;;;;1.40;1.30;;;;;;;-145.53;100.00;64590.91;6337060;28;20433;-63
2023/03/16 01:20:49;;;;;;;1.57;1.47;;;;;;;-145.53;100.00;64590.91;6326193;28;20443;-62
2023/03/16 01:23:54;;;;;;;1.90;1.33;;;;;;;-145.53;100.00;64590.91;6336830;28;20422;-63
2023/03/16 01:26:58;;;;;;;1.23;1.13;;;;;;;-145.53;100.00;64590.91;6337159;28;20437;-63
2023/03/16 01:30:02;;;;;;;1.60;1.10;;;;;;;-145.53;100.00;64590.91;6332561;28;20437;-64
2023/03/16 01:33:06;;;;;;;1.07;0.97;;;;;;;-145.53;100.00;64590.91;6330806;28;20440;-63
2023/03/16 01:36:12;;;;;;;1.57;1.13;;;;;;;-145.53;100.00;64590.91;6337659;28;20448;-63
2023/03/16 01:39:18;;;;;;;1.23;1.13;;;;;;;-145.53;100.00;64590.91;6336104;28;20517;-63
2023/03/16 01:42:22;;;;;;;1.20;1.10;;;;;;;-145.53;100.00;64590.91;6324897;28;20930;-64
2023/03/16 01:46:16;;;;;;;1.80;1.07;;;;;;;-145.53;100.00;64590.91;6335298;28;20445;-64
2023/03/16 01:49:24;;;;;;;1.20;0.90;;;;;;;-145.53;100.00;64590.91;6352715;28;20428;-64
2023/03/16 01:52:32;;;;;;;2.10;1.27;;;;;;;-145.53;100.00;64590.91;6359852;28;20449;-63
2023/03/16 01:55:38;;;;;;;1.47;1.10;;;;;;;-145.53;100.00;64590.91;6353621;27;20444;-63
2023/03/16 01:58:44;;;;;;;1.10;1.00;;;;;;;-145.53;100.00;64590.91;6362312;28;20796;-64
2023/03/16 02:01:50;;;;;;;1.30;1.20;;;;;;;-145.53;100.00;64590.91;6361689;27;20452;-64
2023/03/16 02:04:58;;;;;;;2.17;1.20;;;;;;;-145.53;100.00;64590.91;6346469;27;21053;-64
2023/03/16 02:08:04;;;;;;;1.03;1.00;;;;;;;-145.53;100.00;64590.91;6361026;28;20570;-64
2023/03/16 02:11:10;;;;;;;1.10;1.00;;;;;;;-145.53;100.00;64590.91;6361963;28;20913;-64
2023/03/16 02:14:14;;;;;;;1.00;0.90;;;;;;;-145.53;100.00;64590.91;6361628;27;20521;-64
2023/03/16 02:17:21;;;;;;;2.70;0.90;;;;;;;-145.53;100.00;64590.91;6350528;28;20533;-64
2023/03/16 02:20:34;;;;;;;1.30;1.20;;;;;;;-145.53;100.00;64590.91;6360916;27;20449;-63
2023/03/16 02:23:38;;;;;;;1.20;1.10;;;;;;;-145.53;100.00;64590.91;6360216;28;20536;-63
2023/03/16 02:26:48;;;;;;;1.83;1.20;;;;;;;-145.53;100.00;64590.91;6359924;27;20947;-63
2023/03/16 02:30:00;;;;;;;0.70;0.70;;;;;;;-145.53;100.00;64590.91;6354870;28;20445;-63
2023/03/16 02:33:04;;;;;;;1.80;0.83;;;;;;;-145.53;100.00;64590.91;6360914;27;20511;-63
2023/03/16 02:36:10;;;;;;;6.23;1.00;;;;;;;-145.53;100.00;64590.91;6360924;28;20448;-64
2023/03/16 02:39:14;;;;;;;1.20;0.90;;;;;;;-145.53;100.00;64590.91;6349249;28;20932;-64
2023/03/16 02:42:21;;;;;;;1.00;0.80;;;;;;;-145.53;100.00;64590.91;6361224;28;20478;-64
2023/03/16 02:45:32;;;;;;;1.10;1.00;;;;;;;-145.53;100.00;64590.91;6361743;27;20440;-62
2023/03/16 02:48:42;;;;;;;1.27;1.00;;;;;;;-145.53;100.00;64590.91;6360630;28;20440;-64
2023/03/16 02:51:47;;;;;;;1.20;1.10;;;;;;;-145.53;100.00;64590.91;6349466;27;20452;-63
2023/03/16 02:54:51;;;;;;;1.60;1.50;;;;;;;-145.53;100.00;64590.91;6361025;27;20444;-63
2023/03/16 02:57:55;;;;;;;1.50;1.40;;;;;;;-145.53;100.00;64590.91;6360700;27;20976;-64
2023/03/16 03:01:01;;;;;;;2.47;2.27;;;;;;;-145.53;100.00;64590.91;6355683;27;20459;-63
2023/03/16 03:04:05;;;;;;;2.70;2.27;;;;;;;-145.53;100.00;64590.91;6350249;28;20436;-63
2023/03/16 03:07:10;;;;;;;2.50;2.30;;;;;;;-145.53;100.00;64590.91;6360151;28;20432;-62
2023/03/16 03:10:14;;;;;;;2.43;2.23;;;;;;;-145.53;100.00;64590.91;6360746;28;20432;-64
2023/03/16 03:13:18;;;;;;;3.20;2.90;;;;;;;-145.53;100.00;64590.91;6350214;27;20835;-63
2023/03/16 03:16:24;;;;;;;2.70;2.50;;;;;;;-145.53;100.00;64590.91;6359892;28;20432;-64
2023/03/16 03:19:27;;;;;;;3.10;2.80;;;;;;;-145.53;100.00;64590.91;6355851;27;20837;-63
2023/03/16 03:22:32;;;;;;;3.30;3.00;;;;;;;-145.53;100.00;64590.91;6358779;28;20435;-63
2023/03/16 03:25:36;;;;;;;3.10;2.80;;;;;;;-145.53;100.00;64590.91;6347853;28;20459;-63
2023/03/16 03:28:40;;;;;;;3.17;2.97;;;;;;;-145.53;100.00;64590.91;6360523;28;20947;-64
2023/03/16 03:31:46;;;;;;;3.30;3.00;;;;;;;-145.53;100.00;64590.91;6360787;27;20459;-63
2023/03/16 03:34:50;;;;;;;3.10;2.90;;;;;;;-145.53;100.00;64590.91;6360520;27;20440;-63
2023/03/16 03:37:54;;;;;;;2.90;2.70;;;;;;;-145.53;100.00;64590.91;6350623;27;20437;-64
2023/03/16 03:40:59;;;;;;;2.90;2.70;;;;;;;-145.53;100.00;64590.91;6360766;28;20585;-63
2023/03/16 03:44:05;;;;;;;4.00;2.80;;;;;;;-145.53;100.00;64590.91;6360170;27;20519;-64
2023/03/16 03:47:10;;;;;;;3.50;2.50;;;;;;;-145.53;100.00;64590.91;6349087;27;20799;-63
2023/03/16 03:50:14;;;;;;;2.47;2.27;;;;;;;-145.53;100.00;64590.91;6359736;28;20855;-63
2023/03/16 03:53:19;;;;;;;3.03;2.70;;;;;;;-145.53;100.00;64590.91;6360014;28;20995;-63
2023/03/16 03:56:23;;;;;;;2.67;2.47;;;;;;;-145.53;100.00;64590.91;6360179;28;20432;-63
2023/03/16 03:59:26;;;;;;;2.97;2.70;;;;;;;-145.53;100.00;64590.91;6348825;28;20456;-63
2023/03/16 04:02:32;;;;;;;3.07;2.77;;;;;;;-145.53;100.00;64590.91;6354790;28;20921;-64
2023/03/16 04:05:36;;;;;;;2.90;2.70;;;;;;;-145.53;100.00;64590.91;6359528;28;20850;-66
2023/03/16 04:08:40;;;;;;;3.50;3.10;;;;;;;-145.53;100.00;64590.91;6359225;28;20433;-63
2023/03/16 04:11:43;;;;;;;3.93;3.10;;;;;;;-145.53;100.00;64590.91;6347780;28;20444;-62
2023/03/16 04:14:47;;;;;;;3.20;2.90;;;;;;;-145.53;100.00;64590.91;6355440;28;20574;-64
2023/03/16 04:17:53;;;;;;;5.73;3.30;;;;;;;-145.53;100.00;64590.91;6360036;28;20432;-64
2023/03/16 04:20:57;;;;;;;4.00;3.70;;;;;;;-145.53;100.00;64590.91;6353750;28;20847;-62
2023/03/16 04:24:03;;;;;;;22.07;20.43;;;;;;;-145.53;100.00;64590.91;6352959;28;20443;-63
2023/03/16 04:27:07;;;;;;;25.30;23.30;;;;;;;-145.53;100.00;64590.91;6356120;27;20424;-63
2023/03/16 04:30:13;;;;;;;32.97;30.47;;;;;;;-145.53;100.00;64590.91;6355693;28;20444;-63
2023/03/16 04:33:18;;;;;;;27.43;25.20;;;;;;;-145.53;100.00;64590.91;6341743;28;20544;-64
2023/03/16 04:36:23;;;;;;;21.53;19.80;;;;;;;-145.53;100.00;64590.91;6358671;27;20482;-63
2023/03/16 04:39:27;;;;;;;16.27;15.07;;;;;;;-145.53;100.00;64590.91;6358231;27;20447;-64
2023/03/16 04:42:31;;;;;;;16.13;14.73;;;;;;;-145.53;100.00;64590.91;6359075;28;20435;-63
2023/03/16 04:45:35;;;;;;;12.00;11.20;;;;;;;-145.53;100.00;64590.91;6347476;27;20859;-64
2023/03/16 04:48:40;;;;;;;10.77;9.87;;;;;;;-145.53;100.00;64590.91;6338345;27;20515;-64
2023/03/16 04:51:44;;;;;;;9.93;9.03;;;;;;;-145.53;100.00;64590.91;6332388;28;20490;-63
2023/03/16 04:54:48;;;;;;;8.23;7.43;;;;;;;-145.53;100.00;64590.91;6327887;28;20441;-62
2023/03/16 04:57:52;;;;;;;7.47;6.20;;;;;;;-145.53;100.00;64590.91;6324753;28;20520;-62
2023/03/16 05:00:56;;;;;;;4.93;4.40;;;;;;;-145.53;100.00;64590.91;6327074;28;20469;-62
2023/03/16 05:04:01;;;;;;;4.60;4.13;;;;;;;-145.53;100.00;64590.91;6333356;28;20912;-63
2023/03/16 05:07:05;;;;;;;3.50;3.20;;;;;;;-145.53;100.00;64590.91;6320228;28;20456;-61
2023/03/16 05:10:10;;;;;;;3.33;3.03;;;;;;;-145.53;100.00;64590.91;6325839;28;20500;-61
2023/03/16 05:13:14;;;;;;;3.90;2.93;;;;;;;-145.53;100.00;64590.91;6332435;28;20434;-61
2023/03/16 05:16:18;;;;;;;2.53;2.23;;;;;;;-145.53;100.00;64590.91;6331269;28;20444;-61
2023/03/16 05:19:23;;;;;;;2.37;2.17;;;;;;;-145.53;100.00;64590.91;6318134;28;20452;-61
2023/03/16 05:22:27;;;;;;;2.60;2.07;;;;;;;-145.53;100.00;64590.91;6308530;28;20801;-63
2023/03/16 05:25:31;;;;;;;1.87;1.67;;;;;;;-145.53;100.00;64590.91;6308346;28;20438;-61
2023/03/16 05:28:35;;;;;;;5.13;2.77;;;;;;;-145.53;100.00;64590.91;6308435;28;20442;-62
2023/03/16 05:31:39;;;;;;;1.63;1.50;;;;;;;-145.53;100.00;64590.91;6298060;28;20519;-62
2023/03/16 05:34:45;;;;;;;2.60;1.90;;;;;;;-145.53;100.00;64590.91;6308043;28;20478;-62
2023/03/16 05:37:49;;;;;;;3.23;1.50;;;;;;;-145.53;100.00;64590.91;6307996;28;20812;-61
2023/03/16 05:40:53;;;;;;;1.60;1.40;;;;;;;-145.53;100.00;64590.91;6311294;28;20449;-61
2023/03/16 05:43:57;;;;;;;2.60;1.47;;;;;;;-145.53;100.00;64590.91;6335082;28;20449;-61
2023/03/16 05:47:01;;;;;;;1.43;1.33;;;;;;;-145.53;100.00;64590.91;6341613;28;20877;-61
2023/03/16 05:50:10;;;;;;;1.30;1.20;;;;;;;-145.53;100.00;64590.91;6363466;27;20443;-61
2023/03/16 05:53:14;;;;;;;2.17;1.60;;;;;;;-145.53;100.00;64590.91;6351516;27;20475;-61
2023/03/16 05:56:18;;;;;;;1.47;1.37;;;;;;;-145.53;100.00;64590.91;6362843;28;20448;-60
2023/03/16 05:59:22;;;;;;;1.60;1.50;;;;;;;-145.53;100.00;64590.91;6362787;28;20499;-61
2023/03/16 06:02:25;;;;;;;1.63;1.40;;;;;;;-145.53;100.00;64590.91;6362685;28;20439;-61
2023/03/16 06:05:31;;;;;;;1.60;1.47;;;;;;;-145.53;100.00;64590.91;6351655;27;20493;-61
2023/03/16 06:08:35;;;;;;;1.37;1.27;;;;;;;-145.53;100.00;64590.91;6362659;28;20436;-60
2023/03/16 06:11:38;;;;;;;1.90;1.53;;;;;;;-145.53;100.00;64590.91;6342068;28;20807;-61
2023/03/16 06:14:42;;;;;;;1.50;1.40;;;;;;;-145.53;100.00;64590.91;6331566;28;20821;-62
2023/03/16 06:17:47;;;;;;;1.63;1.53;;;;;;;-145.53;100.00;64590.91;6332085;28;20794;-62
2023/03/16 06:20:52;;;;;;;2.53;1.77;;;;;;;-145.53;100.00;64590.91;6337040;28;20782;-62
2023/03/16 06:23:56;;;;;;;1.87;1.70;;;;;;;-145.53;100.00;64590.91;6336965;28;20438;-62
2023/03/16 06:27:00;;;;;;;1.63;1.53;;;;;;;-145.53;100.00;64590.91;6325450;27;20453;-62
2023/03/16 06:30:05;;;;;;;1.90;1.80;;;;;;;-145.53;100.00;64590.91;6336828;28;20447;-62
2023/03/16 06:33:09;;;;;;;2.07;1.87;;;;;;;-145.53;100.00;64590.91;6336937;28;20820;-62
2023/03/16 06:36:14;;;;;;;2.10;1.93;;;;;;;-145.53;100.00;64590.91;6336645;28;20449;-62
2023/03/16 06:39:18;;;;;;;5.60;2.70;;;;;;;-145.53;100.00;64590.91;6325157;28;20453;-62
2023/03/16 06:42:22;;;;;;;3.40;3.10;;;;;;;-145.53;100.00;64590.91;6362076;28;20445;-60
2023/03/16 06:45:26;;;;;;;3.70;3.40;;;;;;;-145.53;100.00;64590.91;6361749;27;20432;-63
2023/03/16 06:48:30;;;;;;;4.73;4.33;;;;;;;-145.53;100.00;64590.91;6356311;27;20439;-61
2023/03/16 06:51:35;;;;;;;5.30;4.80;;;;;;;-145.53;100.00;64590.91;6355928;27;20448;-62
2023/03/16 06:54:40;;;;;;;4.80;4.40;;;;;;;-145.53;100.00;64590.91;6361279;27;20460;-61
2023/03/16 06:57:43;;;;;;;5.63;5.13;;;;;;;-145.53;100.00;64590.91;6361729;28;20437;-60
2023/03/16 07:00:47;;;;;;;5.20;4.80;;;;;;;-145.53;100.00;64590.91;6350333;27;20571;-60
2023/03/16 07:03:51;;;;;;;4.93;4.50;;;;;;;-145.53;100.00;64590.91;6361648;27;20506;-61
2023/03/16 07:06:57;;;;;;;5.60;5.20;;;;;;;-145.53;100.00;64590.91;6359838;27;20411;-61
2023/03/16 07:10:00;;;;;;;5.05;4.65;;;;;;;-145.53;100.00;64590.91;6353711;27;20509;-61
2023/03/16 07:13:04;;;;;;;4.83;4.43;;;;;;;-145.53;100.00;64590.91;6324298;28;20319;-61
2023/03/16 07:16:08;;;;;;;5.10;4.70;;;;;;;-145.53;100.00;64590.91;6335906;28;20437;-61
2023/03/16 07:19:12;;;;;;;5.13;4.73;;;;;;;-145.53;100.00;64590.91;6335756;28;20429;-61
2023/03/16 07:22:18;;;;;;;6.00;5.00;;;;;;;-145.53;100.00;64590.91;6335722;28;20524;-61
2023/03/16 07:25:21;;;;;;;5.00;4.47;;;;;;;-145.53;100.00;64590.91;6324769;28;20953;-61
2023/03/16 07:28:25;;;;;;;5.10;4.60;;;;;;;-145.53;100.00;64590.91;6335550;28;20909;-61
2023/03/16 07:31:29;;;;;;;5.10;4.63;;;;;;;-145.53;100.00;64590.91;6335935;28;20433;-61
2023/03/16 07:34:34;;;;;;;4.13;3.73;;;;;;;-145.53;100.00;64590.91;6328612;28;20453;-61
2023/03/16 07:37:39;;;;;;;4.20;3.83;;;;;;;-145.53;100.00;64590.91;6333130;28;20440;-61
2023/03/16 07:40:43;;;;;;;4.40;4.03;;;;;;;-145.53;100.00;64590.91;6347612;28;20570;-60
2023/03/16 07:43:47;;;;;;;3.73;3.43;;;;;;;-145.53;100.00;64590.91;6360853;28;20816;-60
2023/03/16 07:46:51;;;;;;;3.90;3.50;;;;;;;-145.53;100.00;64590.91;6349358;28;20440;-60
2023/03/16 07:49:55;;;;;;;4.20;3.90;;;;;;;-145.53;100.00;64590.91;6360625;28;20960;-61
2023/03/16 07:53:00;;;;;;;4.60;4.20;;;;;;;-145.53;100.00;64590.91;6360591;28;20440;-60
2023/03/16 07:56:04;;;;;;;3.90;3.60;;;;;;;-145.53;100.00;64590.91;6360316;27;20451;-61
2023/03/16 07:59:08;;;;;;;3.93;3.63;;;;;;;-145.53;100.00;64590.91;6348961;27;20443;-61
2023/03/16 08:02:14;;;;;;;3.60;3.30;;;;;;;-145.53;100.00;64590.91;6360574;28;20475;-61
2023/03/16 08:05:18;;;;;;;4.23;3.83;;;;;;;-145.53;100.00;64590.91;6359989;27;20416;-61
2023/03/16 08:08:24;;;;;;;4.23;3.83;;;;;;;-145.53;100.00;64590.91;6355206;28;20479;-62
2023/03/16 08:11:28;;;;;;;4.10;3.80;;;;;;;-145.53;100.00;64590.91;6335792;27;20964;-63
2023/03/16 08:14:33;;;;;;;3.73;3.43;;;;;;;-145.53;100.00;64590.91;6334638;28;20441;-61
2023/03/16 08:17:40;;;;;;;3.60;3.30;;;;;;;-145.53;100.00;64590.91;6335450;28;20466;-61
2023/03/16 08:20:44;;;;;;;3.60;3.30;;;;;;;-145.53;100.00;64590.91;6323892;28;20866;-62
2023/03/16 08:23:50;;;;;;;3.90;3.60;;;;;;;-145.53;100.00;64590.91;6334769;28;20425;-61
2023/03/16 08:26:55;;;;;;;3.40;3.10;;;;;;;-145.53;100.00;64590.91;6334622;28;20418;-61
2023/03/16 08:30:03;;;;;;;2.87;2.67;;;;;;;-145.53;100.00;64590.91;6334553;28;20445;-61
2023/03/16 08:33:07;;;;;;;3.00;2.80;;;;;;;-145.53;100.00;64590.91;6322916;28;20939;-60
2023/03/16 08:36:14;;;;;;;3.00;2.80;;;;;;;-145.53;100.00;64590.91;6334317;28;20446;-61
2023/03/16 08:39:20;;;;;;;2.77;2.57;;;;;;;-145.53;100.00;64590.91;6334519;28;20463;-61
2023/03/16 08:42:24;;;;;;;2.67;2.47;;;;;;;-145.53;100.00;64590.91;6334332;28;20422;-61
2023/03/16 08:45:28;;;;;;;3.40;3.10;;;;;;;-145.53;100.00;64590.91;6324209;28;20539;-61
2023/03/16 08:48:33;;;;;;;3.07;2.40;;;;;;;-145.53;100.00;64590.91;6333852;28;20996;-62
2023/03/16 08:51:37;;;;;;;2.70;2.50;;;;;;;-145.53;100.00;64590.91;6334432;28;20887;-61
2023/03/16 08:54:43;;;;;;;2.63;2.43;;;;;;;-145.53;100.00;64590.91;6324983;28;20450;-60
2023/03/16 08:58:04;;;;;;;2.70;2.50;;;;;;;-145.53;100.00;64590.91;6334409;28;20483;-62
2023/03/16 09:01:08;;;;;;;2.73;2.53;;;;;;;-145.53;100.00;64590.91;6334053;28;20563;-62
2023/03/16 09:04:12;;;;;;;2.47;2.27;;;;;;;-145.53;100.00;64590.91;6333965;28;20953;-62
2023/03/16 09:07:17;;;;;;;3.00;2.77;;;;;;;-145.53;100.00;64590.91;6322252;28;20828;-61
2023/03/16 09:10:23;;;;;;;2.43;2.23;;;;;;;-145.53;100.00;64590.91;6341982;28;20917;-62
2023/03/16 09:13:29;;;;;;;2.63;2.43;;;;;;;-145.53;100.00;64590.91;6359429;27;20492;-60
2023/03/16 09:16:34;;;;;;;4.10;2.27;;;;;;;-145.53;100.00;64590.91;6359354;27;20478;-61
2023/03/16 09:19:39;;;;;;;2.40;2.20;;;;;;;-145.53;100.00;64590.91;6352975;27;20470;-61
2023/03/16 09:22:55;;;;;;;2.20;2.00;;;;;;;-145.53;100.00;64590.91;6363799;28;20778;-61
2023/03/16 09:26:04;;;;;;;2.77;2.30;;;;;;;-145.53;100.00;64590.91;6363788;27;20467;-61
2023/03/16 09:29:08;;;;;;;2.33;2.13;;;;;;;-145.53;100.00;64590.91;6352463;27;20443;-60
2023/03/16 09:32:13;;;;;;;2.70;2.50;;;;;;;-145.53;100.00;64590.91;6363371;27;20447;-61
2023/03/16 09:35:18;;;;;;;2.80;2.60;;;;;;;-145.53;100.00;64590.91;6363305;28;20433;-62
2023/03/16 09:38:23;;;;;;;4.00;3.70;;;;;;;-145.53;100.00;64590.91;6363467;27;20447;-61
2023/03/16 09:41:41;;;;;;;5.13;4.73;;;;;;;-145.53;100.00;64590.91;6334504;28;20472;-62
2023/03/16 09:44:59;;;;;;;5.90;5.50;;;;;;;-145.53;100.00;64590.91;6337835;28;20922;-61
2023/03/16 09:48:08;;;;;;;8.17;7.47;;;;;;;-145.53;100.00;64590.91;6337181;28;20540;-61
2023/03/16 09:51:20;;;;;;;10.27;9.47;;;;;;;-145.53;100.00;64590.91;6328595;28;20445;-61
2023/03/16 09:54:31;;;;;;;11.37;10.57;;;;;;;-145.53;100.00;64590.91;6306282;28;20434;-61
2023/03/16 09:57:41;;;;;;;13.70;12.60;;;;;;;-145.53;100.00;64590.91;6312155;28;20442;-61
2023/03/16 10:00:52;;;;;;;13.63;12.63;;;;;;;-145.53;100.00;64590.91;6312177;28;20419;-62
2023/03/16 10:04:14;;;;;;;16.67;15.47;;;;;;;-145.53;100.00;64590.91;6300770;28;20970;-61
2023/03/16 10:07:29;;;;;;;16.60;15.30;;;;;;;-145.53;100.00;64590.91;6312021;28;20924;-60
2023/03/16 10:10:58;;;;;;;18.70;17.37;;;;;;;-145.53;100.00;64590.91;6321662;28;20430;-60
2023/03/16 10:14:16;;;;;;;20.10;18.60;;;;;;;-145.53;100.00;64590.91;6332909;28;20436;-60
2023/03/16 10:17:24;;;;;;;19.83;18.40;;;;;;;-145.53;100.00;64590.91;6332229;28;20449;-61
2023/03/16 10:20:33;;;;;;;19.40;17.90;;;;;;;-145.53;100.00;64590.91;6337479;28;20424;-61
2023/03/16 10:23:37;;;;;;;18.00;16.60;;;;;;;-145.53;100.00;64590.91;6337325;28;20428;-61
2023/03/16 10:26:48;;;;;;;18.53;17.13;;;;;;;-145.53;100.00;64590.91;6326402;28;20436;-61
2023/03/16 10:29:54;;;;;;;19.80;18.30;;;;;;;-145.53;100.00;64590.91;6336555;28;20499;-61
2023/03/16 10:33:02;;;;;;;19.20;17.80;;;;;;;-145.53;100.00;64590.91;6337068;28;20504;-61
2023/03/16 10:36:14;;;;;;;18.17;16.87;;;;;;;-145.53;100.00;64590.91;6337373;28;20445;-61
2023/03/16 10:39:18;;;;;;;18.27;16.97;;;;;;;-145.53;100.00;64590.91;6325268;28;20456;-61
2023/03/16 10:42:22;;;;;;;18.53;17.10;;;;;;;-145.53;100.00;64590.91;6336729;28;20433;-61
2023/03/16 10:45:31;;;;;;;17.53;16.23;;;;;;;-145.53;100.00;64590.91;6337172;28;20437;-60
2023/03/16 10:48:35;;;;;;;16.77;15.57;;;;;;;-145.53;100.00;64590.91;6330852;28;20437;-62
2023/03/16 10:51:39;;;;;;;16.50;15.40;;;;;;;-145.53;100.00;64590.91;6331171;28;20452;-61
2023/03/16 10:54:49;;;;;;;15.57;14.37;;;;;;;-145.53;100.00;64590.91;6337039;28;20492;-61
2023/03/16 10:57:55;;;;;;;15.70;14.60;;;;;;;-145.53;100.00;64590.91;6336931;28;21025;-61
2023/03/16 11:01:02;;;;;;;14.73;13.63;;;;;;;-145.53;100.00;64590.91;6325823;28;20460;-61
2023/03/16 11:04:14;;;;;;;14.63;13.53;;;;;;;-145.53;100.00;64590.91;6336676;28;20422;-61
2023/03/16 11:07:20;;;;;;;13.50;12.50;;;;;;;-145.53;100.00;64590.91;6336529;28;20418;-61
2023/03/16 11:10:32;;;;;;;12.40;11.50;;;;;;;-145.53;100.00;64590.91;6336130;28;20781;-61
2023/03/16 11:13:45;;;;;;;11.67;10.87;;;;;;;-145.53;100.00;64590.91;6325399;28;20441;-61
2023/03/16 11:16:59;;;;;;;11.77;10.97;;;;;;;-145.53;100.00;64590.91;6336413;28;20468;-62
2023/03/16 11:20:13;;;;;;;11.67;10.77;;;;;;;-145.53;100.00;64590.91;6336143;28;20941;-62
2023/03/16 11:23:21;;;;;;;10.70;9.97;;;;;;;-145.53;100.00;64590.91;6325702;28;20433;-62
2023/03/16 11:26:31;;;;;;;10.70;9.90;;;;;;;-145.53;100.00;64590.91;6335645;28;20480;-62
2023/03/16 11:29:47;;;;;;;9.60;8.90;;;;;;;-145.53;100.00;64590.91;6336188;28;20800;-61
2023/03/16 11:32:53;;;;;;;9.40;8.70;;;;;;;-145.53;100.00;64590.91;6335951;28;20948;-61
2023/03/16 11:36:09;;;;;;;9.23;8.57;;;;;;;-145.53;100.00;64590.91;6324591;27;20483;-62
2023/03/16 11:39:24;;;;;;;8.07;7.50;;;;;;;-145.53;100.00;64590.91;6335657;28;20422;-60
2023/03/16 11:42:33;;;;;;;8.03;7.50;;;;;;;-145.53;100.00;64590.91;6336038;28;20804;-61
2023/03/16 11:45:42;;;;;;;7.80;7.30;;;;;;;-145.53;100.00;64590.91;6330350;28;20993;-61
2023/03/16 11:48:58;;;;;;;8.07;7.53;;;;;;;-145.53;100.00;64590.91;6330041;28;20851;-61
2023/03/16 11:52:11;;;;;;;7.67;7.13;;;;;;;-145.53;100.00;64590.91;6336340;28;20421;-61
2023/03/16 11:55:29;;;;;;;7.13;6.63;;;;;;;-145.53;100.00;64590.91;6335615;28;20414;-61
2023/03/16 11:58:45;;;;;;;7.37;6.80;;;;;;;-145.53;100.00;64590.91;6324171;28;20474;-61
2023/03/16 12:02:05;;;;;;;7.13;6.63;;;;;;;-145.53;100.00;64590.91;6333931;28;20469;-60
2023/03/16 12:05:46;;;;;;;6.35;5.95;;;;;;;-145.53;100.00;64590.91;6334085;28;20379;-60
2023/03/16 12:09:09;;;;;;;6.20;5.80;;;;;;;-145.53;100.00;64590.91;6326534;28;20395;-60
2023/03/16 12:12:28;;;;;;;6.40;5.90;;;;;;;-145.53;100.00;64590.91;6333730;28;20379;-62
2023/03/16 12:15:40;;;;;;;6.22;5.72;;;;;;;-145.53;100.00;64590.91;6333924;28;20756;-60
2023/03/16 12:18:47;;;;;;;5.80;5.40;;;;;;;-145.53;100.00;64590.91;6333740;28;20423;-61
2023/03/16 12:22:03;;;;;;;5.65;5.25;;;;;;;-145.53;100.00;64590.91;6322608;27;20383;-61
2023/03/16 12:25:18;;;;;;;5.25;4.85;;;;;;;-145.53;100.00;64590.91;6333755;28;20379;-61
2023/03/16 12:28:24;;;;;;;5.10;4.70;;;;;;;-145.53;100.00;64590.91;6333379;28;20391;-62
2023/03/16 12:31:37;;;;;;;5.22;4.82;;;;;;;-145.53;100.00;64590.91;6327698;28;20887;-61
2023/03/16 12:34:49;;;;;;;4.78;4.47;;;;;;;-145.53;100.00;64590.91;6329891;28;20387;-61
2023/03/16 12:38:07;;;;;;;4.90;4.50;;;;;;;-145.53;100.00;64590.91;6333347;28;20386;-61
2023/03/16 12:41:22;;;;;;;4.40;4.10;;;;;;;-145.53;100.00;64590.91;6333081;28;20753;-61
2023/03/16 12:44:35;;;;;;;4.50;4.20;;;;;;;-145.53;100.00;64590.91;6321973;28;20380;-60
2023/03/16 12:47:48;;;;;;;4.20;3.90;;;;;;;-145.53;100.00;64590.91;6332342;28;20457;-61
2023/03/16 12:50:54;;;;;;;4.30;4.00;;;;;;;-145.53;100.00;64590.91;6333600;28;20391;-62
2023/03/16 12:54:00;;;;;;;4.20;3.90;;;;;;;-145.53;100.00;64590.91;6335760;28;20474;-61
2023/03/16 12:57:07;;;;;;;3.60;3.40;;;;;;;-145.53;100.00;64590.91;6335571;28;20387;-61
2023/03/16 13:00:13;;;;;;;3.50;3.20;;;;;;;-145.53;100.00;64590.91;6341575;28;20397;-62
2023/03/16 13:03:21;;;;;;;3.33;3.13;;;;;;;-145.53;100.00;64590.91;6341686;28;20517;-61
2023/03/16 13:06:31;;;;;;;3.70;3.40;;;;;;;-145.53;100.00;64590.91;6330020;28;20778;-60
2023/03/16 13:09:47;;;;;;;3.40;3.20;;;;;;;-145.53;100.00;64590.91;6326799;28;20843;-62
2023/03/16 13:12:51;;;;;;;3.85;3.55;;;;;;;-145.53;100.00;64590.91;6341236;28;20375;-62
2023/03/16 13:16:05;;;;;;;3.60;3.40;;;;;;;-145.53;100.00;64590.91;6341707;28;20378;-62
2023/03/16 13:19:26;;;;;;;3.57;3.33;;;;;;;-145.53;100.00;64590.91;6329815;28;20910;-62
2023/03/16 13:22:32;;;;;;;3.20;3.00;;;;;;;-145.53;100.00;64590.91;6340969;28;20453;-62
2023/03/16 13:25:42;;;;;;;3.20;3.00;;;;;;;-145.53;100.00;64590.91;6341308;28;20383;-60
2023/03/16 13:28:51;;;;;;;2.90;2.70;;;;;;;-145.53;100.00;64590.91;6334823;28;20853;-62
2023/03/16 13:31:58;;;;;;;2.90;2.70;;;;;;;-145.53;100.00;64590.91;6340078;28;20859;-62
2023/03/16 13:35:05;;;;;;;3.10;2.90;;;;;;;-145.53;100.00;64590.91;6340835;28;20440;-61
2023/03/16 13:38:15;;;;;;;3.15;2.95;;;;;;;-145.53;100.00;64590.91;6341112;28;20864;-61
2023/03/16 13:41:20;;;;;;;2.58;2.38;;;;;;;-145.53;100.00;64590.91;6329092;28;20383;-60
2023/03/16 13:44:25;;;;;;;2.70;2.50;;;;;;;-145.53;100.00;64590.91;6340826;28;20375;-61
2023/03/16 13:47:29;;;;;;;2.70;2.50;;;;;;;-145.53;100.00;64590.91;6339631;28;20387;-62
2023/03/16 13:50:34;;;;;;;3.05;2.85;;;;;;;-145.53;100.00;64590.91;6340622;28;20465;-62
2023/03/16 13:53:41;;;;;;;2.80;2.60;;;;;;;-145.53;100.00;64590.91;6329145;28;20585;-64
2023/03/16 13:56:47;;;;;;;2.75;2.55;;;;;;;-145.53;100.00;64590.91;6340305;28;20474;-62
2023/03/16 13:59:57;;;;;;;2.50;2.30;;;;;;;-145.53;100.00;64590.91;6340199;28;20375;-62
2023/03/16 14:03:13;;;;;;;2.47;2.28;;;;;;;-145.53;100.00;64590.91;6332854;28;20402;-62
2023/03/16 14:06:24;;;;;;;2.90;2.70;;;;;;;-145.53;100.00;64590.91;6335285;28;20466;-61